createdAt,value
2022-10-05T00:03:22.639Z,96355.00
2022-10-05T00:08:50.402Z,96342.00
2022-10-05T00:14:35.548Z,96348.00
2022-10-05T00:20:20.407Z,96335.00
2022-10-05T00:25:48.460Z,96315.00
2022-10-05T00:31:31.240Z,96316.00
2022-10-05T00:36:59.208Z,96308.00
2022-10-05T00:42:46.797Z,96301.00
2022-10-05T00:48:32.839Z,96297.00
2022-10-05T00:54:37.711Z,96293.00
2022-10-05T01:00:13.174Z,96287.00
2022-10-05T01:06:26.795Z,96279.00
2022-10-05T01:12:07.718Z,96281.00
2022-10-05T01:18:14.722Z,96279.00
2022-10-05T01:24:07.922Z,96272.00
2022-10-05T01:30:04.931Z,96261.00
2022-10-05T01:35:48.482Z,96252.00
2022-10-05T01:41:54.345Z,96247.00
2022-10-05T01:47:41.057Z,96239.00
2022-10-05T01:53:54.981Z,96245.00
2022-10-05T01:59:33.407Z,96255.00
2022-10-05T02:05:18.196Z,96250.00
2022-10-05T02:11:07.859Z,96246.00
2022-10-05T02:16:40.140Z,96246.00
2022-10-05T02:22:18.232Z,96232.00
2022-10-05T02:28:11.357Z,96222.00
2022-10-05T02:33:40.988Z,96218.00
2022-10-05T02:39:53.872Z,96217.00
2022-10-05T02:45:43.373Z,96221.00
2022-10-05T02:51:24.421Z,96212.00
2022-10-05T02:57:02.927Z,96204.00
2022-10-05T03:02:52.423Z,96204.00
2022-10-05T03:08:25.705Z,96219.00
2022-10-05T03:14:06.216Z,96210.00
2022-10-05T03:20:00.545Z,96213.00
2022-10-05T03:25:59.630Z,96211.00
2022-10-05T03:32:00.592Z,96219.00
2022-10-05T03:38:03.718Z,96213.00
2022-10-05T03:44:05.597Z,96218.00
2022-10-05T03:50:15.715Z,96219.00
2022-10-05T03:56:14.751Z,96217.00
2022-10-05T04:01:58.410Z,96207.00
2022-10-05T04:08:10.299Z,96205.00
2022-10-05T04:14:06.328Z,96204.00
2022-10-05T04:20:04.616Z,96200.00
2022-10-05T04:25:57.585Z,96198.00
2022-10-05T04:31:57.740Z,96203.00
2022-10-05T04:38:08.694Z,96198.00
2022-10-05T04:44:10.373Z,96205.00
2022-10-05T04:50:15.969Z,96205.00
2022-10-05T04:56:13.007Z,96204.00
2022-10-05T05:02:17.546Z,96218.00
2022-10-05T05:08:14.915Z,96213.00
2022-10-05T05:14:41.547Z,96223.00
2022-10-05T05:20:43.942Z,96228.00
2022-10-05T05:26:53.141Z,96237.00
2022-10-05T05:33:11.151Z,96233.00
2022-10-05T05:39:12.817Z,96236.00
2022-10-05T05:44:52.998Z,96239.00
2022-10-05T05:51:04.911Z,96232.00
2022-10-05T05:56:39.175Z,96244.00
2022-10-05T06:02:17.877Z,96228.00
2022-10-05T06:07:46.258Z,96239.00
2022-10-05T06:13:28.932Z,96245.00
2022-10-05T06:19:08.994Z,96235.00
2022-10-05T06:25:27.114Z,96235.00
2022-10-05T06:31:16.952Z,96241.00
2022-10-05T06:36:58.966Z,96252.00
2022-10-05T06:43:03.474Z,96251.00
2022-10-05T06:49:09.290Z,96248.00
2022-10-05T06:55:25.848Z,96258.00
2022-10-05T07:01:28.912Z,96255.00
2022-10-05T07:07:42.314Z,96258.00
2022-10-05T07:13:51.332Z,96259.00
2022-10-05T07:19:56.116Z,96261.00
2022-10-05T07:25:50.294Z,96268.00
2022-10-05T07:31:48.463Z,96275.00
2022-10-05T07:38:00.206Z,96283.00
2022-10-05T07:44:02.487Z,96292.00
2022-10-05T07:49:54.587Z,96289.00
2022-10-05T07:55:51.064Z,96292.00
2022-10-05T08:01:29.713Z,96308.00
2022-10-05T08:07:06.279Z,96313.00
2022-10-05T08:13:02.650Z,96311.00
2022-10-05T08:19:14.443Z,96309.00
2022-10-05T08:24:56.011Z,96326.00
2022-10-05T08:30:27.587Z,96321.00
2022-10-05T08:36:12.804Z,96333.00
2022-10-05T08:42:01.752Z,96332.00
2022-10-05T08:48:01.797Z,96327.00
2022-10-05T08:54:06.494Z,96328.00
2022-10-05T09:00:05.132Z,96331.00
2022-10-05T09:06:28.801Z,96333.00
2022-10-05T09:12:24.160Z,96338.00
2022-10-05T09:18:28.945Z,96335.00
2022-10-05T09:24:35.719Z,96331.00
2022-10-05T09:30:21.921Z,96332.00
2022-10-05T09:36:27.548Z,96332.00
2022-10-05T09:42:16.364Z,96339.00
2022-10-05T09:48:14.641Z,96329.00
2022-10-05T09:54:23.052Z,96329.00
2022-10-05T10:00:16.391Z,96337.00
2022-10-05T10:06:13.809Z,96334.00
2022-10-05T10:12:00.573Z,96330.00
2022-10-05T10:17:47.546Z,96324.00
2022-10-05T10:23:25.964Z,96327.00
2022-10-05T10:29:19.730Z,96329.00
2022-10-05T10:35:19.027Z,96322.00
2022-10-05T10:41:15.780Z,96326.00
2022-10-05T10:46:58.998Z,96321.00
2022-10-05T10:53:07.525Z,96323.00
2022-10-05T10:58:59.612Z,96319.00
2022-10-05T11:05:12.861Z,96311.00
2022-10-05T11:11:09.420Z,96305.00
2022-10-05T11:16:51.956Z,96305.00
2022-10-05T11:22:31.819Z,96305.00
2022-10-05T11:28:55.781Z,96296.00
2022-10-05T11:35:01.853Z,96298.00
2022-10-05T11:41:23.334Z,96284.00
2022-10-05T11:47:39.369Z,96280.00
2022-10-05T11:53:27.835Z,96277.00
2022-10-05T11:59:30.582Z,96262.00
2022-10-05T12:05:24.164Z,96257.00
2022-10-05T12:11:31.503Z,96258.00
2022-10-05T12:17:28.600Z,96245.00
2022-10-05T12:23:05.967Z,96241.00
2022-10-05T12:28:51.826Z,96238.00
2022-10-05T12:34:50.422Z,96229.00
2022-10-05T12:40:49.542Z,96223.00
2022-10-05T12:46:29.605Z,96223.00
2022-10-05T12:52:04.639Z,96227.00
2022-10-05T12:57:53.500Z,96221.00
2022-10-05T13:04:17.947Z,96217.00
2022-10-05T13:09:57.625Z,96220.00
2022-10-05T13:15:58.436Z,96219.00
2022-10-05T13:21:46.614Z,96218.00
2022-10-05T13:27:42.938Z,96219.00
2022-10-05T13:33:18.099Z,96217.00
2022-10-05T13:39:19.800Z,96221.00
2022-10-05T13:45:20.509Z,96216.00
2022-10-05T13:51:19.507Z,96209.00
2022-10-05T13:56:56.896Z,96212.00
2022-10-05T14:02:39.352Z,96204.00
2022-10-05T14:08:07.155Z,96208.00
2022-10-05T14:13:47.032Z,96204.00
2022-10-05T14:19:43.023Z,96206.00
2022-10-05T14:25:10.705Z,96208.00
2022-10-05T14:30:39.935Z,96211.00
2022-10-05T14:36:39.264Z,96203.00
2022-10-05T14:42:22.635Z,96204.00
2022-10-05T14:48:00.623Z,96204.00
2022-10-05T14:53:46.293Z,96203.00
2022-10-05T14:59:49.440Z,96208.00
2022-10-05T15:05:46.013Z,96204.00
2022-10-05T15:11:38.269Z,96207.00
2022-10-05T15:17:27.034Z,96204.00
2022-10-05T15:23:28.214Z,96205.00
2022-10-05T15:29:26.060Z,96204.00
2022-10-05T15:35:32.133Z,96205.00
2022-10-05T15:41:39.416Z,96195.00
2022-10-05T15:47:23.861Z,96199.00
2022-10-05T15:53:16.146Z,96193.00
2022-10-05T15:59:26.916Z,96195.00
2022-10-05T16:05:17.669Z,96198.00
2022-10-05T16:10:46.699Z,96205.00
2022-10-05T16:16:31.983Z,96202.00
2022-10-05T16:22:22.288Z,96203.00
2022-10-05T16:28:05.779Z,96211.00
2022-10-05T16:34:01.488Z,96210.00
2022-10-05T16:39:50.088Z,96215.00
2022-10-05T16:46:00.832Z,96206.00
2022-10-05T16:51:53.766Z,96214.00
2022-10-05T16:57:35.520Z,96216.00
2022-10-05T17:03:27.361Z,96218.00
2022-10-05T17:09:29.831Z,96216.00
2022-10-05T17:15:21.300Z,96234.00
2022-10-05T17:21:41.572Z,96236.00
2022-10-05T17:27:50.690Z,96237.00
2022-10-05T17:33:31.631Z,96239.00
2022-10-05T17:39:23.141Z,96243.00
2022-10-05T17:45:20.765Z,96250.00
2022-10-05T17:51:08.378Z,96259.00
2022-10-05T17:56:48.055Z,96267.00
2022-10-05T18:02:38.563Z,96269.00
2022-10-05T18:08:13.162Z,96274.00
2022-10-05T18:13:50.072Z,96272.00
2022-10-05T18:19:22.335Z,96284.00
2022-10-05T18:25:32.050Z,96287.00
2022-10-05T18:31:17.641Z,96305.00
2022-10-05T18:37:10.253Z,96307.00
2022-10-05T18:43:07.249Z,96319.00
2022-10-05T18:49:18.434Z,96319.00
2022-10-05T18:55:15.582Z,96323.00
2022-10-05T19:01:17.447Z,96328.00
2022-10-05T19:06:59.926Z,96341.00
2022-10-05T19:12:51.146Z,96334.00
2022-10-05T19:18:36.906Z,96351.00
2022-10-05T19:24:11.856Z,96351.00
2022-10-05T19:30:02.614Z,96353.00
2022-10-05T19:36:03.091Z,96355.00
2022-10-05T19:41:55.677Z,96372.00
2022-10-05T19:47:53.596Z,96377.00
2022-10-05T19:53:39.994Z,96384.00
2022-10-05T19:59:21.486Z,96388.00
2022-10-05T20:04:50.011Z,96391.00
2022-10-05T20:10:38.907Z,96401.00
2022-10-05T20:16:28.550Z,96405.00
2022-10-05T20:21:59.266Z,96403.00
2022-10-05T20:27:52.155Z,96417.00
2022-10-05T20:33:24.139Z,96419.00
2022-10-05T20:38:51.880Z,96421.00
2022-10-05T20:44:19.984Z,96426.00
2022-10-05T20:49:50.202Z,96435.00
2022-10-05T20:55:31.333Z,96439.00
2022-10-05T21:01:19.042Z,96442.00
2022-10-05T21:06:47.551Z,96444.00
2022-10-05T21:12:19.051Z,96447.00
2022-10-05T21:17:46.807Z,96455.00
2022-10-05T21:23:14.567Z,96448.00
2022-10-05T21:28:42.424Z,96461.00
2022-10-05T21:34:10.306Z,96467.00
2022-10-05T21:39:38.096Z,96466.00
2022-10-05T21:45:07.048Z,96469.00
2022-10-05T21:50:36.231Z,96480.00
2022-10-05T21:56:09.961Z,96479.00
2022-10-05T22:01:43.694Z,96486.00
2022-10-05T22:07:26.920Z,96486.00
2022-10-05T22:13:04.778Z,96493.00
2022-10-05T22:18:39.074Z,96505.00
2022-10-05T22:24:10.789Z,96506.00
2022-10-05T22:29:49.898Z,96507.00
2022-10-05T22:35:19.364Z,96506.00
2022-10-05T22:40:48.573Z,96512.00
2022-10-05T22:46:40.813Z,96511.00
2022-10-05T22:52:13.942Z,96518.00
2022-10-05T22:58:08.460Z,96514.00
2022-10-05T23:03:46.781Z,96518.00
2022-10-05T23:09:17.764Z,96531.00
2022-10-05T23:14:56.997Z,96532.00
2022-10-05T23:20:30.530Z,96542.00
2022-10-05T23:26:19.998Z,96560.00
2022-10-05T23:31:51.077Z,96563.00
2022-10-05T23:37:22.642Z,96561.00
2022-10-05T23:42:50.608Z,96569.00
2022-10-05T23:48:18.630Z,96574.00
2022-10-05T23:53:46.814Z,96568.00
2022-10-05T23:59:14.510Z,96585.00
